Time;durP1;ratioP1;P1;durP2;ratioP2;P2;SDS_P1;SDS_P2;PMS_P1;PMS_P2;Temp;Humidity;BMP_temperature;BMP_pressure;BME280_temperature;BME280_humidity;BME280_pressure;Samples;Min_cycle;Max_cycle;Signal;HPM_P1;HPM_P2
2021/10/07 00:01:55;;;;;;;4.95;1.30;;;;;;;-144.51;100.00;69251.94;5089115;28;20040;-79
2021/10/07 00:04:40;;;;;;;1.60;0.63;;;;;;;-144.51;100.00;69251.94;5090206;28;20040;-78
2021/10/07 00:07:25;;;;;;;;;;;;;;;-144.51;100.00;69251.94;5085803;28;20040;-78
2021/10/07 00:10:10;;;;;;;5.60;1.05;;;;;;;-144.51;100.00;69251.94;5098567;28;20300;-79
2021/10/07 00:12:54;;;;;;;;;;;;;;;-144.51;100.00;69251.94;5096951;28;20040;-77
2021/10/07 00:15:39;;;;;;;2.83;0.55;;;;;;;-144.51;100.00;69251.94;5094136;28;19912;-78
2021/10/07 00:18:23;;;;;;;1.48;0.70;;;;;;;-144.51;100.00;69251.94;5097261;28;20036;-75
2021/10/07 00:21:11;;;;;;;3.50;0.65;;;;;;;-144.51;100.00;69251.94;5095459;28;20047;-75
2021/10/07 00:24:08;;;;;;;2.22;0.90;;;;;;;-144.51;100.00;69251.94;5094235;28;20484;-77
2021/10/07 00:26:52;;;;;;;2.60;0.77;;;;;;;-144.51;100.00;69251.94;5076986;28;20036;-75
2021/10/07 00:29:41;;;;;;;1.15;0.57;;;;;;;-144.51;100.00;69251.94;5085924;28;20044;-76
2021/10/07 00:32:31;;;;;;;3.13;0.70;;;;;;;-144.51;100.00;69251.94;5092937;28;20040;-77
2021/10/07 00:41:23;;;;;;;1.00;0.40;;;;;;;-144.51;100.00;69251.94;5093409;28;20059;-77
2021/10/07 00:44:09;;;;;;;;;;;;;;;-144.51;100.00;69251.94;5094921;28;20040;-77
2021/10/07 00:47:02;;;;;;;1.70;0.65;;;;;;;-144.51;100.00;69251.94;5096800;28;19916;-78
2021/10/07 00:49:46;;;;;;;5.07;0.73;;;;;;;-144.51;100.00;69251.94;5089400;28;20040;-77
2021/10/07 00:52:31;;;;;;;0.30;0.30;;;;;;;-144.51;100.00;69251.94;5085089;28;20040;-77
2021/10/07 00:55:16;;;;;;;;;;;;;;;-144.51;100.00;69251.94;5091589;28;20180;-76
2021/10/07 00:58:01;;;;;;;2.83;0.60;;;;;;;-144.51;100.00;69251.94;5093530;28;20627;-77
2021/10/07 01:00:46;;;;;;;0.98;0.50;;;;;;;-144.51;100.00;69251.94;5088925;28;20040;-76
2021/10/07 01:03:33;;;;;;;1.45;0.57;;;;;;;-144.51;100.00;69251.94;5073159;28;20045;-77
2021/10/07 01:06:18;;;;;;;5.78;1.00;;;;;;;-144.51;100.00;69251.94;5084225;28;20396;-78
2021/10/07 01:09:04;;;;;;;;;;;;;;;-144.51;100.00;69251.94;5094333;28;20040;-77
2021/10/07 01:11:48;;;;;;;1.85;0.60;;;;;;;-144.51;100.00;69251.94;5087855;28;19911;-76
2021/10/07 01:14:57;;;;;;;1.40;0.60;;;;;;;-144.51;100.00;69251.94;5071476;28;20044;-77
2021/10/07 01:17:42;;;;;;;0.85;0.30;;;;;;;-144.51;100.00;69251.94;5074494;28;20401;-76
2021/10/07 01:20:27;;;;;;;0.35;0.30;;;;;;;-144.51;100.00;69251.94;5086528;28;20059;-76
2021/10/07 01:23:11;;;;;;;2.28;0.28;;;;;;;-144.51;100.00;69251.94;5096149;28;20039;-76
2021/10/07 01:25:56;;;;;;;2.53;0.40;;;;;;;-144.51;100.00;69251.94;5098939;28;20439;-77
2021/10/07 01:28:45;;;;;;;2.53;0.55;;;;;;;-144.51;100.00;69251.94;5076524;28;20044;-76
2021/10/07 01:31:29;;;;;;;2.05;0.50;;;;;;;-144.51;100.00;69251.94;5093428;28;20036;-76
2021/10/07 01:34:25;;;;;;;1.13;0.55;;;;;;;-144.51;100.00;69251.94;5097836;28;20420;-77
2021/10/07 01:37:10;;;;;;;0.60;0.40;;;;;;;-144.51;100.00;69251.94;5094273;28;20032;-76
2021/10/07 01:39:55;;;;;;;1.25;0.50;;;;;;;-144.51;100.00;69251.94;5095224;28;20040;-76
2021/10/07 01:45:48;;;;;;;2.35;0.30;;;;;;;-144.51;100.00;69251.94;5095274;28;20040;-76
2021/10/07 01:48:34;;;;;;;1.77;0.65;;;;;;;-144.51;100.00;69251.94;5078684;28;20420;-77
2021/10/07 01:54:22;;;;;;;0.30;0.30;;;;;;;-144.51;100.00;69251.94;5098509;28;20039;-76
2021/10/07 01:57:07;;;;;;;2.75;0.30;;;;;;;-144.51;100.00;69251.94;5095985;28;20044;-76
2021/10/07 02:00:10;;;;;;;0.45;0.25;;;;;;;-144.51;100.00;69251.94;5096478;28;20044;-76
2021/10/07 02:02:58;;;;;;;1.20;0.47;;;;;;;-144.51;100.00;69251.94;5098905;28;20415;-76
2021/10/07 02:05:43;;;;;;;0.20;0.10;;;;;;;-144.51;100.00;69251.94;5097173;28;20044;-76
2021/10/07 02:08:27;;;;;;;3.20;0.68;;;;;;;-144.51;100.00;69251.94;5095088;28;20052;-77
2021/10/07 02:11:12;;;;;;;;;;;;;;;-144.51;100.00;69251.94;5096654;28;20044;-76
2021/10/07 02:13:57;;;;;;;1.85;0.50;;;;;;;-144.51;100.00;69251.94;5095512;28;19931;-76
2021/10/07 02:16:41;;;;;;;1.17;0.40;;;;;;;-144.51;100.00;69251.94;5098953;28;20044;-79
2021/10/07 02:19:26;;;;;;;;;;;;;;;-144.51;100.00;69251.94;5090881;28;20040;-80
2021/10/07 02:22:11;;;;;;;2.92;0.85;;;;;;;-144.51;100.00;69251.94;5096303;28;20264;-78
2021/10/07 02:24:55;;;;;;;1.17;0.43;;;;;;;-144.51;100.00;69251.94;5094699;28;20040;-77
2021/10/07 02:27:40;;;;;;;;;;;;;;;-144.51;100.00;69251.94;5095871;28;20061;-76
2021/10/07 02:30:25;;;;;;;1.53;0.50;;;;;;;-144.51;100.00;69251.94;5089339;28;19912;-76
2021/10/07 02:33:10;;;;;;;;;;;;;;;-144.51;100.00;69251.94;5094598;28;20044;-77
2021/10/07 02:39:17;;;;;;;9.02;0.50;;;;;;;-144.51;100.00;69251.94;5095426;28;20032;-77
2021/10/07 02:42:01;;;;;;;12.65;3.53;;;;;;;-144.51;100.00;69251.94;5086123;28;20048;-77
2021/10/07 02:44:46;;;;;;;14.82;4.10;;;;;;;-144.51;100.00;69251.94;5097620;28;20036;-77
2021/10/07 02:47:31;;;;;;;10.90;3.58;;;;;;;-144.51;100.00;69251.94;5087095;28;20404;-75
2021/10/07 02:50:16;;;;;;;4.70;0.70;;;;;;;-144.51;100.00;69251.94;5100089;28;20044;-78
2021/10/07 02:53:20;;;;;;;2.53;1.13;;;;;;;-144.51;100.00;69251.94;5099065;28;20040;-76
2021/10/07 02:56:06;;;;;;;1.05;0.70;;;;;;;-144.51;100.00;69251.94;5079075;28;20436;-76
2021/10/07 02:59:09;;;;;;;2.15;0.68;;;;;;;-144.51;100.00;69251.94;5095261;28;20040;-77
2021/10/07 03:01:54;;;;;;;5.45;1.10;;;;;;;-144.51;100.00;69251.94;5091052;28;20043;-78
2021/10/07 03:04:39;;;;;;;;;;;;;;;-144.51;100.00;69251.94;5098277;28;20564;-78
2021/10/07 03:07:23;;;;;;;0.95;0.60;;;;;;;-144.51;100.00;69251.94;5090616;28;19915;-78
2021/10/07 03:10:09;;;;;;;2.17;1.08;;;;;;;-144.51;100.00;69251.94;5097334;28;20040;-78
2021/10/07 03:13:13;;;;;;;4.72;0.80;;;;;;;-144.51;100.00;69251.94;5098485;28;20143;-77
2021/10/07 03:15:57;;;;;;;5.13;1.05;;;;;;;-144.51;100.00;69251.94;5095577;28;20044;-77
2021/10/07 03:18:42;;;;;;;;;;;;;;;-144.51;100.00;69251.94;5085907;28;20492;-77
2021/10/07 03:21:27;;;;;;;3.47;0.75;;;;;;;-144.51;100.00;69251.94;5094886;28;19911;-77
2021/10/07 03:24:12;;;;;;;1.10;0.47;;;;;;;-144.51;100.00;69251.94;5092707;28;20040;-77
2021/10/07 03:27:16;;;;;;;3.15;0.85;;;;;;;-144.51;100.00;69251.94;5093865;28;20492;-77
2021/10/07 03:30:01;;;;;;;1.10;0.80;;;;;;;-144.51;100.00;69251.94;5099087;28;20044;-76
2021/10/07 03:32:45;;;;;;;7.28;1.60;;;;;;;-144.51;100.00;69251.94;5095944;28;20044;-78
2021/10/07 03:35:31;;;;;;;3.25;1.10;;;;;;;-144.51;100.00;69251.94;5087458;28;20047;-77
2021/10/07 03:38:34;;;;;;;2.17;1.00;;;;;;;-144.51;100.00;69251.94;5081873;28;20033;-78
2021/10/07 03:41:20;;;;;;;2.60;0.90;;;;;;;-144.51;100.00;69251.94;5075626;28;20052;-77
2021/10/07 03:44:23;;;;;;;1.63;0.90;;;;;;;-144.51;100.00;69251.94;5085918;28;20031;-78
2021/10/07 03:47:08;;;;;;;8.32;1.30;;;;;;;-144.51;100.00;69251.94;5094990;28;20044;-77
2021/10/07 03:49:53;;;;;;;7.30;2.47;;;;;;;-144.51;100.00;69251.94;5093902;28;20044;-78
2021/10/07 03:52:38;;;;;;;;;;;;;;;-144.51;100.00;69251.94;5099660;28;20039;-78
2021/10/07 03:55:41;;;;;;;1.60;1.02;;;;;;;-144.51;100.00;69251.94;5097172;28;19912;-77
2021/10/07 03:58:26;;;;;;;3.13;1.40;;;;;;;-144.51;100.00;69251.94;5093522;28;20036;-78
2021/10/07 04:01:11;;;;;;;;;;;;;;;-144.51;100.00;69251.94;5095297;28;20589;-77
2021/10/07 04:03:56;;;;;;;1.93;0.73;;;;;;;-144.51;100.00;69251.94;5097118;28;19912;-78
2021/10/07 04:06:40;;;;;;;1.33;0.73;;;;;;;-144.51;100.00;69251.94;5095497;28;20274;-78
2021/10/07 04:09:25;;;;;;;5.65;1.15;;;;;;;-144.51;100.00;69251.94;5083298;28;20040;-78
2021/10/07 04:12:10;;;;;;;;;;;;;;;-144.51;100.00;69251.94;5092733;28;20028;-79
2021/10/07 04:17:58;;;;;;;11.35;0.77;;;;;;;-144.51;100.00;69251.94;5093687;28;20420;-75
2021/10/07 04:21:01;;;;;;;4.63;0.90;;;;;;;-144.51;100.00;69251.94;5092991;28;20036;-78
2021/10/07 04:23:46;;;;;;;1.13;1.00;;;;;;;-144.51;100.00;69251.94;5093128;28;20048;-77
2021/10/07 04:26:32;;;;;;;;;;;;;;;-144.51;100.00;69251.94;5077787;28;20041;-77
2021/10/07 04:32:20;;;;;;;1.85;1.23;;;;;;;-144.51;100.00;69251.94;5089932;28;20331;-78
2021/10/07 04:35:06;;;;;;;1.38;0.80;;;;;;;-144.51;100.00;69251.94;5094889;28;20040;-77
2021/10/07 04:37:50;;;;;;;8.65;1.73;;;;;;;-144.51;100.00;69251.94;5081545;28;20037;-78
2021/10/07 04:40:54;;;;;;;3.17;2.10;;;;;;;-144.51;100.00;69251.94;5086219;28;20044;-77
2021/10/07 04:43:38;;;;;;;2.55;1.48;;;;;;;-144.51;100.00;69251.94;5088083;28;20044;-78
2021/10/07 04:46:23;;;;;;;4.05;1.65;;;;;;;-144.51;100.00;69251.94;5108246;22;20040;-60
2021/10/07 04:49:27;;;;;;;5.10;2.20;;;;;;;-144.51;100.00;69251.94;5040136;28;20036;-60
2021/10/07 04:52:12;;;;;;;;;;;;;;;-144.51;100.00;69251.94;5048395;28;20056;-61
2021/10/07 04:54:56;;;;;;;4.80;2.20;;;;;;;-144.51;100.00;69251.94;5050490;28;20367;-60
2021/10/07 04:57:41;;;;;;;8.38;2.35;;;;;;;-144.51;100.00;69251.94;5055469;28;20041;-60
2021/10/07 05:00:26;;;;;;;2.72;1.98;;;;;;;-144.51;100.00;69251.94;5044040;28;20041;-60
2021/10/07 05:03:11;;;;;;;;;;;;;;;-144.51;100.00;69251.94;5054305;28;20048;-60
2021/10/07 05:05:56;;;;;;;10.63;3.42;;;;;;;-144.51;100.00;69251.94;5056803;28;19920;-60
2021/10/07 05:08:41;;;;;;;6.82;3.55;;;;;;;-144.51;100.00;69251.94;5041996;28;20049;-60
2021/10/07 05:11:26;;;;;;;9.07;3.33;;;;;;;-144.51;100.00;69251.94;5051298;28;20045;-60
2021/10/07 05:17:15;;;;;;;10.77;3.00;;;;;;;-144.51;100.00;69251.94;5051969;28;20037;-60
2021/10/07 05:20:00;;;;;;;7.97;3.03;;;;;;;-144.51;100.00;69251.94;5046776;28;20049;-61
2021/10/07 05:22:44;;;;;;;;;;;;;;;-144.51;100.00;69251.94;5051592;28;20040;-61
2021/10/07 05:25:29;;;;;;;9.57;2.80;;;;;;;-144.51;100.00;69251.94;5054384;28;19912;-61
2021/10/07 05:28:14;;;;;;;6.68;2.70;;;;;;;-144.51;100.00;69251.94;5053918;28;20431;-61
2021/10/07 05:30:59;;;;;;;10.25;2.33;;;;;;;-144.51;100.00;69251.94;5055715;28;20041;-60
2021/10/07 05:33:44;;;;;;;;;;;;;;;-144.51;100.00;69251.94;5053679;28;20487;-61
2021/10/07 05:36:28;;;;;;;7.30;3.28;;;;;;;-144.51;100.00;69251.94;5051529;28;19916;-61
2021/10/07 05:39:32;;;;;;;11.20;2.97;;;;;;;-144.51;100.00;69251.94;5046348;28;20036;-61
2021/10/07 05:42:16;;;;;;;6.40;3.65;;;;;;;-144.51;100.00;69251.94;5053156;28;20484;-61
2021/10/07 05:45:02;;;;;;;4.53;2.40;;;;;;;-144.51;100.00;69251.94;5058294;28;20041;-61
2021/10/07 05:47:47;;;;;;;9.77;3.60;;;;;;;-144.51;100.00;69251.94;5048055;28;20041;-61
2021/10/07 05:50:32;;;;;;;7.70;3.60;;;;;;;-144.51;100.00;69251.94;5046866;28;20041;-61
2021/10/07 05:53:17;;;;;;;;;;;;;;;-144.51;100.00;69251.94;5057082;28;20040;-61
2021/10/07 05:56:04;;;;;;;8.85;3.88;;;;;;;-144.51;100.00;69251.94;5056673;28;19913;-61
2021/10/07 05:58:49;;;;;;;7.25;3.60;;;;;;;-144.51;100.00;69251.94;5055241;28;20033;-61
2021/10/07 06:01:34;;;;;;;;;;;;;;;-144.51;100.00;69251.94;5059170;28;20404;-61
2021/10/07 06:04:18;;;;;;;5.70;3.60;;;;;;;-144.51;100.00;69251.94;5056531;28;19913;-61
2021/10/07 06:07:03;;;;;;;7.15;2.65;;;;;;;-144.51;100.00;69251.94;5055008;28;20056;-61
2021/10/07 06:12:51;;;;;;;8.07;2.90;;;;;;;-144.51;100.00;69251.94;5056201;28;20044;-61
2021/10/07 06:15:36;;;;;;;6.20;2.78;;;;;;;-144.51;100.00;69251.94;5053930;28;20053;-61
2021/10/07 06:18:21;;;;;;;3.47;2.50;;;;;;;-144.51;100.00;69251.94;5057904;28;20045;-61
2021/10/07 06:21:06;;;;;;;;;;;;;;;-144.51;100.00;69251.94;5056801;28;20423;-61
2021/10/07 06:23:50;;;;;;;6.22;3.47;;;;;;;-144.51;100.00;69251.94;5054172;28;19917;-61
2021/10/07 06:26:54;;;;;;;9.85;3.05;;;;;;;-144.51;100.00;69251.94;5058068;28;20480;-61
2021/10/07 06:29:39;;;;;;;7.88;2.60;;;;;;;-144.51;100.00;69251.94;5054944;28;20412;-61
2021/10/07 06:32:24;;;;;;;7.47;1.88;;;;;;;-144.51;100.00;69251.94;5059270;28;20408;-61
2021/10/07 06:35:09;;;;;;;3.28;2.20;;;;;;;-144.51;100.00;69251.94;5057046;28;20044;-61
2021/10/07 06:38:13;;;;;;;5.97;3.05;;;;;;;-144.51;100.00;69251.94;5053059;28;20407;-61
2021/10/07 06:44:02;;;;;;;5.13;2.70;;;;;;;-144.51;100.00;69251.94;5053124;28;20045;-61
2021/10/07 06:46:47;;;;;;;9.73;2.90;;;;;;;-144.51;100.00;69251.94;5053797;28;20041;-61
2021/10/07 06:49:32;;;;;;;;;;;;;;;-144.51;100.00;69251.94;5055435;28;20407;-61
2021/10/07 06:52:16;;;;;;;8.55;3.25;;;;;;;-144.51;100.00;69251.94;5055859;28;20379;-61
2021/10/07 06:55:02;;;;;;;6.70;3.00;;;;;;;-144.51;100.00;69251.94;5053610;28;20480;-61
2021/10/07 06:57:47;;;;;;;5.03;2.58;;;;;;;-144.51;100.00;69251.94;5057552;28;20040;-61
2021/10/07 07:00:32;;;;;;;3.38;2.05;;;;;;;-144.51;100.00;69251.94;5055810;28;20041;-61
2021/10/07 07:03:17;;;;;;;10.13;3.28;;;;;;;-144.51;100.00;69251.94;5053839;28;20400;-61
2021/10/07 07:06:01;;;;;;;6.38;2.75;;;;;;;-144.51;100.00;69251.94;5057663;28;20045;-61
2021/10/07 07:08:47;;;;;;;;;;;;;;;-144.51;100.00;69251.94;5056321;28;20045;-61
2021/10/07 07:11:32;;;;;;;6.05;2.40;;;;;;;-144.51;100.00;69251.94;5054374;28;19913;-61
2021/10/07 07:14:17;;;;;;;;;;;;;;;-144.51;100.00;69251.94;5058277;28;20484;-61
2021/10/07 07:17:02;;;;;;;6.70;2.00;;;;;;;-144.51;100.00;69251.94;5055537;28;19912;-61
2021/10/07 07:19:48;;;;;;;;;;;;;;;-144.51;100.00;69251.94;5054304;28;20267;-61
2021/10/07 07:22:33;;;;;;;7.05;2.58;;;;;;;-144.51;100.00;69251.94;5058190;28;19912;-61
2021/10/07 07:25:37;;;;;;;7.15;2.67;;;;;;;-144.51;100.00;69251.94;5052854;28;20049;-61
2021/10/07 07:28:41;;;;;;;6.10;2.95;;;;;;;-144.51;100.00;69251.94;5052624;28;20049;-61
2021/10/07 07:31:26;;;;;;;;;;;;;;;-144.51;100.00;69251.94;5056873;28;20519;-61
2021/10/07 07:34:10;;;;;;;7.73;2.73;;;;;;;-144.51;100.00;69251.94;5054131;28;19916;-61
2021/10/07 07:36:55;;;;;;;4.90;2.28;;;;;;;-144.51;100.00;69251.94;5052623;28;20057;-61
2021/10/07 07:39:58;;;;;;;5.43;2.00;;;;;;;-144.51;100.00;69251.94;5052618;28;20041;-61
2021/10/07 07:42:43;;;;;;;6.57;1.70;;;;;;;-144.51;100.00;69251.94;5053665;28;20033;-61
2021/10/07 07:45:28;;;;;;;7.28;2.20;;;;;;;-144.51;100.00;69251.94;5057218;28;20048;-61
2021/10/07 07:48:13;;;;;;;10.45;2.92;;;;;;;-144.51;100.00;69251.94;5055407;28;20045;-61
2021/10/07 07:51:18;;;;;;;10.88;3.22;;;;;;;-144.51;100.00;69251.94;5053613;28;20408;-61
2021/10/07 07:54:03;;;;;;;3.47;2.38;;;;;;;-144.51;100.00;69251.94;5056974;28;20037;-61
2021/10/07 07:57:07;;;;;;;9.25;1.90;;;;;;;-144.51;100.00;69251.94;5055162;28;20045;-61
2021/10/07 08:02:58;;;;;;;6.63;1.83;;;;;;;-144.51;100.00;69251.94;5054844;28;20049;-61
2021/10/07 08:05:42;;;;;;;;;;;;;;;-144.51;100.00;69251.94;5053247;28;20044;-61
2021/10/07 08:08:27;;;;;;;6.90;2.13;;;;;;;-144.51;100.00;69251.94;5056629;28;19916;-61
2021/10/07 08:11:12;;;;;;;;;;;;;;;-144.51;100.00;69251.94;5055614;28;20045;-61
2021/10/07 08:14:16;;;;;;;4.17;2.17;;;;;;;-144.51;100.00;69251.94;5053277;28;19913;-61
2021/10/07 08:17:21;;;;;;;7.38;1.40;;;;;;;-144.51;100.00;69251.94;5056151;28;20415;-61
2021/10/07 08:20:08;;;;;;;3.17;0.97;;;;;;;-144.51;100.00;69251.94;5052102;28;20045;-61
2021/10/07 08:22:53;;;;;;;1.55;0.30;;;;;;;-144.51;100.00;69251.94;5057353;28;20272;-61
2021/10/07 08:25:39;;;;;;;;;;;;;;;-144.51;100.00;69251.94;5055936;28;20048;-61
2021/10/07 08:28:24;;;;;;;6.80;0.45;;;;;;;-144.51;100.00;69251.94;5055413;28;19916;-61
2021/10/07 08:34:12;;;;;;;0.30;0.20;;;;;;;-144.51;100.00;69251.94;5055881;28;20003;-61
2021/10/07 08:36:57;;;;;;;6.72;0.20;;;;;;;-144.51;100.00;69251.94;5056909;28;20045;-61
2021/10/07 08:39:42;;;;;;;;;;;;;;;-144.51;100.00;69251.94;5057692;28;20029;-61
2021/10/07 08:42:28;;;;;;;0.57;0.40;;;;;;;-144.51;100.00;69251.94;5059204;28;19912;-60
2021/10/07 08:45:13;;;;;;;0.28;0.17;;;;;;;-144.51;100.00;69251.94;5057100;28;20045;-60
2021/10/07 08:47:58;;;;;;;;;;;;;;;-144.51;100.00;69251.94;5056697;28;20041;-60
2021/10/07 08:51:01;;;;;;;7.50;0.57;;;;;;;-144.51;100.00;69251.94;5059217;28;20249;-60
2021/10/07 08:53:46;;;;;;;2.45;0.32;;;;;;;-144.51;100.00;69251.94;5056064;28;20045;-60
2021/10/07 08:56:31;;;;;;;;;;;;;;;-144.51;100.00;69251.94;5060470;28;20399;-60
2021/10/07 08:59:16;;;;;;;0.70;0.28;;;;;;;-144.51;100.00;69251.94;5057995;28;19913;-60
2021/10/07 09:02:04;;;;;;;0.90;0.10;;;;;;;-144.51;100.00;69251.94;5056521;28;20508;-60
2021/10/07 09:04:49;;;;;;;0.20;0.20;;;;;;;-144.51;100.00;69251.94;5060304;28;20044;-60
2021/10/07 09:07:52;;;;;;;;;;;;;;;-144.51;100.00;69251.94;5058376;28;20040;-60
2021/10/07 09:10:51;;;;;;;2.42;0.30;;;;;;;-144.51;100.00;69251.94;5055324;28;19924;-61
2021/10/07 09:13:36;;;;;;;1.45;0.10;;;;;;;-144.51;100.00;69251.94;5058665;28;20041;-60
2021/10/07 09:16:44;;;;;;;0.82;0.25;;;;;;;-144.51;100.00;69251.94;5056298;28;20367;-60
2021/10/07 09:19:36;;;;;;;1.75;0.20;;;;;;;-144.51;100.00;69251.94;5057130;28;20037;-60
2021/10/07 09:22:30;;;;;;;0.10;0.10;;;;;;;-144.51;100.00;69251.94;5057651;28;20040;-60
2021/10/07 09:25:15;;;;;;;0.13;0.13;;;;;;;-144.51;100.00;69251.94;5054906;28;20044;-60
2021/10/07 09:28:03;;;;;;;1.70;0.40;;;;;;;-144.51;100.00;69251.94;5059005;28;20049;-60
2021/10/07 09:30:56;;;;;;;0.20;0.20;;;;;;;-144.51;100.00;69251.94;5057499;28;20041;-60
2021/10/07 09:33:44;;;;;;;0.73;0.20;;;;;;;-144.51;100.00;69251.94;5060520;28;20045;-60
2021/10/07 09:36:30;;;;;;;4.68;0.30;;;;;;;-144.51;100.00;69251.94;5047320;28;20041;-60
2021/10/07 09:39:20;;;;;;;4.13;1.67;;;;;;;-144.51;100.00;69251.94;5051349;28;20041;-60
2021/10/07 09:42:05;;;;;;;0.98;0.25;;;;;;;-144.51;100.00;69251.94;5059170;28;20066;-60
2021/10/07 09:45:01;;;;;;;;;;;;;;;-144.51;100.00;69251.94;5069021;28;20044;-60
2021/10/07 09:48:06;;;;;;;4.93;0.20;;;;;;;-144.51;100.00;69251.94;5062663;28;19912;-60
2021/10/07 09:50:51;;;;;;;1.90;0.03;;;;;;;-144.51;100.00;69251.94;5054029;28;20424;-61
2021/10/07 09:53:36;;;;;;;0.52;0.50;;;;;;;-144.51;100.00;69251.94;5059925;28;20032;-62
2021/10/07 09:56:29;;;;;;;0.63;0.20;;;;;;;-144.51;100.00;69251.94;5054291;28;20044;-61
2021/10/07 09:59:14;;;;;;;4.25;0.30;;;;;;;-144.51;100.00;69251.94;5051080;28;20041;-61
2021/10/07 10:01:59;;;;;;;;;;;;;;;-144.51;100.00;69251.94;5047005;28;20053;-61
2021/10/07 10:04:44;;;;;;;0.00;0.00;;;;;;;-144.51;100.00;69251.94;5041339;28;19917;-61
2021/10/07 10:07:29;;;;;;;0.20;0.20;;;;;;;-144.51;100.00;69251.94;5047770;28;20040;-61
2021/10/07 10:10:14;;;;;;;;;;;;;;;-144.51;100.00;69251.94;5054728;28;20038;-61
2021/10/07 10:12:59;;;;;;;2.40;0.20;;;;;;;-144.51;100.00;69251.94;5053768;28;19913;-61
2021/10/07 10:15:44;;;;;;;1.08;0.10;;;;;;;-144.51;100.00;69251.94;5055677;28;20045;-61
2021/10/07 10:18:30;;;;;;;0.45;0.10;;;;;;;-144.51;100.00;69251.94;5054848;28;20485;-61
2021/10/07 10:21:36;;;;;;;0.10;0.10;;;;;;;-144.51;100.00;69251.94;5053158;28;20041;-61
2021/10/07 10:24:21;;;;;;;0.32;0.10;;;;;;;-144.51;100.00;69251.94;5056783;28;20539;-61
2021/10/07 10:30:26;;;;;;;12.20;0.60;;;;;;;-144.51;100.00;69251.94;5052752;28;20487;-61
2021/10/07 10:33:32;;;;;;;0.80;0.45;;;;;;;-144.51;100.00;69251.94;5054088;28;20041;-61
2021/10/07 10:36:27;;;;;;;2.50;0.73;;;;;;;-144.51;100.00;69251.94;5057570;28;20443;-61
2021/10/07 10:39:14;;;;;;;0.70;0.10;;;;;;;-144.51;100.00;69251.94;5054556;28;20033;-61
2021/10/07 10:42:02;;;;;;;2.70;0.30;;;;;;;-144.51;100.00;69251.94;5053791;28;20037;-61
2021/10/07 10:44:49;;;;;;;1.38;0.25;;;;;;;-144.51;100.00;69251.94;5055618;28;20107;-61
2021/10/07 10:47:45;;;;;;;1.42;0.65;;;;;;;-144.51;100.00;69251.94;5097491;22;20036;-70
2021/10/07 10:50:31;;;;;;;1.73;0.57;;;;;;;-144.51;100.00;69251.94;5088345;28;20040;-70
2021/10/07 10:53:22;;;;;;;2.22;0.50;;;;;;;-144.51;100.00;69251.94;5096529;28;20040;-70
2021/10/07 10:56:08;;;;;;;0.77;0.20;;;;;;;-144.51;100.00;69251.94;5094394;28;20031;-70
2021/10/07 10:58:54;;;;;;;0.45;0.10;;;;;;;-144.51;100.00;69251.94;5092755;28;20498;-69
2021/10/07 11:01:39;;;;;;;0.20;0.05;;;;;;;-144.51;100.00;69251.94;5094825;28;20410;-69
2021/10/07 11:04:43;;;;;;;0.00;0.00;;;;;;;-144.51;100.00;69251.94;5089745;28;20402;-70
2021/10/07 11:10:38;;;;;;;0.90;0.80;;;;;;;-144.51;100.00;69251.94;5087486;28;20048;-70
2021/10/07 11:13:29;;;;;;;0.15;0.15;;;;;;;-144.51;100.00;69251.94;5088077;28;20036;-69
2021/10/07 11:16:17;;;;;;;1.73;0.20;;;;;;;-144.51;100.00;69251.94;5094514;28;20044;-69
2021/10/07 11:19:02;;;;;;;4.97;0.30;;;;;;;-144.51;100.00;69251.94;5094899;28;20031;-69
2021/10/07 11:21:47;;;;;;;0.77;0.10;;;;;;;-144.51;100.00;69251.94;5090710;28;20044;-69
2021/10/07 11:24:32;;;;;;;;;;;;;;;-144.51;100.00;69251.94;5095431;28;20036;-69
2021/10/07 11:27:36;;;;;;;1.17;0.57;;;;;;;-144.51;100.00;69251.94;5093953;28;19919;-69
2021/10/07 11:30:42;;;;;;;2.17;0.55;;;;;;;-144.51;100.00;69251.94;5097941;28;20036;-69
2021/10/07 11:33:28;;;;;;;0.17;0.15;;;;;;;-144.51;100.00;69251.94;5094856;28;20048;-70
2021/10/07 11:36:15;;;;;;;0.20;0.20;;;;;;;-144.51;100.00;69251.94;5092912;28;20040;-69
2021/10/07 11:39:00;;;;;;;1.10;0.75;;;;;;;-144.51;100.00;69251.94;5092528;28;20490;-69
2021/10/07 11:41:44;;;;;;;;;;;;;;;-144.51;100.00;69251.94;5093226;28;20047;-69
2021/10/07 11:44:30;;;;;;;2.63;0.20;;;;;;;-144.51;100.00;69251.94;5092191;28;19916;-69
2021/10/07 11:47:15;;;;;;;1.45;0.57;;;;;;;-144.51;100.00;69251.94;5093428;28;20036;-70
2021/10/07 11:50:14;;;;;;;1.10;0.40;;;;;;;-144.51;100.00;69251.94;5089264;28;20047;-70
2021/10/07 11:53:17;;;;;;;1.85;0.20;;;;;;;-144.51;100.00;69251.94;5091553;28;20036;-69
2021/10/07 11:59:29;;;;;;;1.85;0.35;;;;;;;-144.51;100.00;69251.94;5092162;28;20027;-69
2021/10/07 12:02:14;;;;;;;;;;;;;;;-144.51;100.00;69251.94;5095012;28;20040;-70
2021/10/07 12:05:15;;;;;;;9.40;0.40;;;;;;;-144.51;100.00;69251.94;5093189;28;19912;-69
2021/10/07 12:08:02;;;;;;;0.80;0.25;;;;;;;-144.51;100.00;69251.94;5096781;28;20035;-69
2021/10/07 12:11:08;;;;;;;2.53;0.40;;;;;;;-144.51;100.00;69251.94;5093043;28;20036;-70
2021/10/07 12:13:58;;;;;;;1.15;0.57;;;;;;;-144.51;100.00;69251.94;5091566;28;20043;-69
2021/10/07 12:16:43;;;;;;;1.88;0.63;;;;;;;-144.51;100.00;69251.94;5093968;28;20044;-69
2021/10/07 12:23:08;;;;;;;3.85;0.65;;;;;;;-144.51;100.00;69251.94;5094724;28;20028;-69
2021/10/07 12:29:07;;;;;;;1.48;0.50;;;;;;;-144.51;100.00;69251.94;5092686;28;20040;-69
2021/10/07 12:32:06;;;;;;;1.17;0.43;;;;;;;-144.51;100.00;69251.94;5091961;28;20497;-68
2021/10/07 12:34:50;;;;;;;0.60;0.30;;;;;;;-144.51;100.00;69251.94;5096559;28;20422;-69
2021/10/07 12:37:39;;;;;;;0.80;0.65;;;;;;;-144.51;100.00;69251.94;5095016;28;20040;-74
2021/10/07 12:40:58;;;;;;;3.50;1.05;;;;;;;-144.51;100.00;69251.94;5088822;28;20510;-69
2021/10/07 12:43:55;;;;;;;17.20;4.47;;;;;;;-144.51;100.00;69251.94;5095510;28;20044;-70
2021/10/07 12:46:49;;;;;;;13.07;3.10;;;;;;;-144.51;100.00;69251.94;5093166;28;20036;-70
2021/10/07 12:49:43;;;;;;;13.57;2.97;;;;;;;-144.51;100.00;69251.94;5090508;28;20044;-70
2021/10/07 12:52:29;;;;;;;11.00;3.10;;;;;;;-144.51;100.00;69251.94;5093293;28;20036;-69
2021/10/07 12:55:36;;;;;;;27.85;6.55;;;;;;;-144.51;100.00;69251.94;5089530;28;20036;-69
2021/10/07 12:58:51;;;;;;;3.22;1.00;;;;;;;-144.51;100.00;69251.94;5090855;28;20044;-70
2021/10/07 13:01:43;;;;;;;6.22;1.15;;;;;;;-144.51;100.00;69251.94;5091463;28;20499;-71
2021/10/07 13:04:28;;;;;;;3.45;1.30;;;;;;;-144.51;100.00;69251.94;5094189;28;20032;-71
2021/10/07 13:07:31;;;;;;;2.65;1.10;;;;;;;-144.51;100.00;69251.94;5090207;28;20513;-70
2021/10/07 13:10:35;;;;;;;;;;;;;;;-144.51;100.00;69251.94;5097040;28;20036;-70
2021/10/07 13:13:20;;;;;;;5.18;1.73;;;;;;;-144.51;100.00;69251.94;5094466;28;20367;-69
2021/10/07 13:16:05;;;;;;;10.98;1.50;;;;;;;-144.51;100.00;69251.94;5092750;28;20483;-71
2021/10/07 13:18:50;;;;;;;4.35;1.00;;;;;;;-144.51;100.00;69251.94;5097396;28;20039;-70
2021/10/07 13:21:35;;;;;;;2.40;0.85;;;;;;;-144.51;100.00;69251.94;5097527;28;20491;-70
2021/10/07 13:24:20;;;;;;;;;;;;;;;-144.51;100.00;69251.94;5096573;28;20043;-70
2021/10/07 13:27:24;;;;;;;2.40;1.00;;;;;;;-144.51;100.00;69251.94;5098305;28;20264;-70
2021/10/07 13:30:14;;;;;;;5.15;0.55;;;;;;;-144.51;100.00;69251.94;5095116;28;20228;-70
2021/10/07 13:32:59;;;;;;;9.70;1.00;;;;;;;-144.51;100.00;69251.94;5095342;28;20483;-70
2021/10/07 13:35:44;;;;;;;3.28;1.02;;;;;;;-144.51;100.00;69251.94;5096664;28;20040;-70
2021/10/07 13:38:29;;;;;;;2.85;1.25;;;;;;;-144.51;100.00;69251.94;5095864;28;20036;-71
2021/10/07 13:41:14;;;;;;;10.05;1.30;;;;;;;-144.51;100.00;69251.94;5094562;28;20039;-70
2021/10/07 13:43:58;;;;;;;2.55;0.50;;;;;;;-144.51;100.00;69251.94;5099003;28;20040;-70
2021/10/07 13:46:43;;;;;;;;;;;;;;;-144.51;100.00;69251.94;5095544;28;20044;-71
2021/10/07 13:49:27;;;;;;;4.15;0.50;;;;;;;-144.51;100.00;69251.94;5093740;28;19920;-71
2021/10/07 13:52:12;;;;;;;2.28;0.57;;;;;;;-144.51;100.00;69251.94;5098392;28;20032;-71